Time;durP1;ratioP1;P1;durP2;ratioP2;P2;SDS_P1;SDS_P2;PMS_P1;PMS_P2;Temp;Humidity;BMP_temperature;BMP_pressure;BME280_temperature;BME280_humidity;BME280_pressure;Samples;Min_cycle;Max_cycle;Signal;HPM_P1;HPM_P2
2023/11/03 00:00:44;;;;;;;5.47;1.57;;;20.20;46.20;;;;;;4977704;28;20511;-75
2023/11/03 00:03:12;;;;;;;4.47;1.53;;;20.10;46.30;;;;;;4971077;28;20489;-75
2023/11/03 00:05:39;;;;;;;6.30;1.80;;;20.10;46.00;;;;;;4966230;28;20461;-76
2023/11/03 00:08:08;;;;;;;6.60;1.60;;;20.10;46.20;;;;;;4960819;28;20451;-75
2023/11/03 00:10:37;;;;;;;3.40;1.60;;;20.10;46.00;;;;;;4964592;28;20475;-75
2023/11/03 00:13:05;;;;;;;4.70;1.73;;;20.10;46.10;;;;;;4971167;28;20924;-75
2023/11/03 00:15:34;;;;;;;3.60;1.57;;;20.10;45.90;;;;;;4958963;28;20530;-75
2023/11/03 00:18:02;;;;;;;5.70;1.30;;;20.10;45.90;;;;;;4962137;28;20446;-75
2023/11/03 00:20:30;;;;;;;3.23;1.27;;;20.10;45.80;;;;;;4972118;28;20473;-75
2023/11/03 00:22:59;;;;;;;6.93;1.53;;;20.10;45.90;;;;;;4964393;28;21000;-75
2023/11/03 00:25:29;;;;;;;8.43;1.30;;;20.10;46.00;;;;;;4970555;28;20454;-75
2023/11/03 00:27:58;;;;;;;3.30;1.20;;;20.10;45.90;;;;;;4973321;28;20478;-75
2023/11/03 00:30:26;;;;;;;4.17;1.20;;;20.10;45.90;;;;;;4972189;28;20477;-75
2023/11/03 00:32:54;;;;;;;4.10;1.50;;;20.10;45.90;;;;;;4965269;28;20533;-75
2023/11/03 00:35:23;;;;;;;3.87;1.37;;;20.10;46.00;;;;;;4981526;28;20437;-75
2023/11/03 00:37:51;;;;;;;2.07;1.27;;;20.10;46.00;;;;;;4972500;28;20442;-75
2023/11/03 00:40:19;;;;;;;3.27;1.30;;;20.20;46.10;;;;;;4959463;28;20446;-75
2023/11/03 00:42:49;;;;;;;2.43;1.33;;;20.20;46.00;;;;;;4963051;28;20486;-75
2023/11/03 00:45:17;;;;;;;4.30;1.50;;;20.20;46.00;;;;;;4968453;28;20451;-75
2023/11/03 00:47:45;;;;;;;6.10;1.30;;;20.20;46.10;;;;;;4968506;28;20455;-75
2023/11/03 00:50:13;;;;;;;2.80;1.10;;;20.10;46.10;;;;;;4966969;28;20470;-75
2023/11/03 00:52:41;;;;;;;5.07;1.43;;;20.10;46.20;;;;;;4961275;28;20515;-75
2023/11/03 00:55:09;;;;;;;3.67;1.33;;;20.10;46.20;;;;;;4962876;28;20537;-75
2023/11/03 00:57:39;;;;;;;1.77;1.20;;;20.10;46.20;;;;;;4967309;28;20537;-75
2023/11/03 01:00:12;;;;;;;6.63;1.33;;;20.10;46.20;;;;;;4974120;28;20470;-76
2023/11/03 01:02:41;;;;;;;1.23;1.00;;;20.10;46.40;;;;;;4963872;28;20476;-75
2023/11/03 01:05:10;;;;;;;3.53;1.20;;;20.10;46.50;;;;;;4969518;28;20479;-75
2023/11/03 01:07:39;;;;;;;4.07;1.50;;;20.00;46.50;;;;;;4962411;28;20454;-75
2023/11/03 01:10:09;;;;;;;2.27;1.07;;;20.00;46.80;;;;;;4969206;28;20493;-75
2023/11/03 01:12:38;;;;;;;1.23;1.13;;;19.90;46.90;;;;;;4971749;28;20442;-76
2023/11/03 01:15:08;;;;;;;2.17;1.00;;;19.90;47.30;;;;;;4974344;28;20577;-75
2023/11/03 01:17:36;;;;;;;3.47;1.10;;;19.90;47.60;;;;;;4971504;28;20470;-75
2023/11/03 01:20:12;;;;;;;2.87;1.20;;;19.90;47.70;;;;;;4975952;28;20458;-75
2023/11/03 01:22:41;;;;;;;1.93;0.87;;;19.80;48.00;;;;;;4966935;28;20554;-75
2023/11/03 01:25:11;;;;;;;2.60;0.97;;;19.80;48.10;;;;;;4976253;28;20476;-74
2023/11/03 01:27:40;;;;;;;3.47;1.40;;;19.80;48.40;;;;;;4975656;28;20449;-75
2023/11/03 01:30:16;;;;;;;1.80;1.23;;;19.70;48.40;;;;;;4968921;28;20478;-74
2023/11/03 01:32:44;;;;;;;1.90;1.07;;;19.70;48.60;;;;;;4984130;23;20505;-81
2023/11/03 01:35:13;;;;;;;4.37;1.27;;;19.70;48.80;;;;;;4963034;28;20432;-81
2023/11/03 01:37:44;;;;;;;3.77;1.10;;;19.70;49.00;;;;;;4963393;28;20422;-83
2023/11/03 01:40:27;;;;;;;2.30;1.20;;;19.70;49.10;;;;;;4958542;28;20428;-78
2023/11/03 01:42:55;;;;;;;3.17;1.27;;;19.70;49.30;;;;;;4957773;28;20510;-79
2023/11/03 01:45:28;;;;;;;2.70;1.40;;;19.60;49.40;;;;;;4959944;28;20466;-78
2023/11/03 01:47:56;;;;;;;2.47;1.50;;;19.60;49.50;;;;;;4950463;28;20497;-78
2023/11/03 01:50:33;;;;;;;1.23;1.13;;;19.60;49.60;;;;;;4960025;28;20451;-77
2023/11/03 01:53:02;;;;;;;2.13;1.13;;;19.60;49.80;;;;;;4951806;28;20558;-78
2023/11/03 01:55:31;;;;;;;3.43;1.20;;;19.60;50.10;;;;;;4952365;28;20474;-77
2023/11/03 01:57:59;;;;;;;3.20;1.40;;;19.60;50.20;;;;;;4949868;28;20481;-77
2023/11/03 02:00:32;;;;;;;3.50;1.40;;;19.50;50.10;;;;;;4950391;28;20557;-77
2023/11/03 02:03:00;;;;;;;2.13;1.00;;;19.50;50.40;;;;;;4956745;28;20478;-78
2023/11/03 02:05:46;;;;;;;2.10;1.17;;;19.50;50.40;;;;;;4953784;28;20401;-77
2023/11/03 02:08:14;;;;;;;1.63;0.90;;;19.40;50.60;;;;;;4967424;28;20453;-76
2023/11/03 02:10:43;;;;;;;1.53;1.10;;;19.50;50.70;;;;;;4973364;28;20450;-77
2023/11/03 02:13:11;;;;;;;3.73;1.07;;;19.40;50.70;;;;;;4965193;28;20453;-78
2023/11/03 02:15:41;;;;;;;5.77;1.07;;;19.40;51.00;;;;;;4962191;28;20878;-78
2023/11/03 02:18:10;;;;;;;1.90;1.10;;;19.30;51.10;;;;;;4968871;28;20439;-77
2023/11/03 02:20:38;;;;;;;1.13;1.03;;;19.30;51.30;;;;;;4952788;28;20533;-77
2023/11/03 02:23:09;;;;;;;1.37;1.00;;;19.30;51.20;;;;;;4955869;28;20538;-77
2023/11/03 02:25:37;;;;;;;3.13;1.20;;;19.30;51.20;;;;;;4960243;28;20458;-76
2023/11/03 02:28:06;;;;;;;3.17;1.30;;;19.30;51.40;;;;;;4963572;28;20451;-79
2023/11/03 02:30:34;;;;;;;2.80;1.33;;;19.30;51.60;;;;;;4953972;28;20460;-80
2023/11/03 02:33:02;;;;;;;2.67;1.10;;;19.30;51.70;;;;;;4954995;28;20567;-77
2023/11/03 02:35:30;;;;;;;2.17;1.20;;;19.20;51.60;;;;;;4959540;28;20447;-78
2023/11/03 02:37:58;;;;;;;1.07;1.00;;;19.20;51.80;;;;;;4955427;28;20417;-78
2023/11/03 02:40:28;;;;;;;2.10;1.00;;;19.20;51.90;;;;;;4956703;28;20498;-78
2023/11/03 02:42:55;;;;;;;1.00;0.90;;;19.20;51.90;;;;;;4959188;28;20557;-79
2023/11/03 02:45:23;;;;;;;1.57;0.90;;;19.10;51.90;;;;;;4956971;28;20481;-77
2023/11/03 02:47:52;;;;;;;1.63;0.90;;;19.10;51.90;;;;;;4959479;28;20427;-78
2023/11/03 02:50:19;;;;;;;3.97;1.00;;;19.10;52.10;;;;;;4957647;28;20454;-78
2023/11/03 02:52:47;;;;;;;2.20;1.20;;;19.10;52.40;;;;;;4947514;28;20498;-78
2023/11/03 02:55:15;;;;;;;2.60;1.10;;;19.10;52.30;;;;;;4958803;28;20535;-78
2023/11/03 02:57:45;;;;;;;3.33;1.57;;;19.10;52.30;;;;;;4957431;28;20439;-79
2023/11/03 03:00:14;;;;;;;3.40;2.07;;;19.10;52.40;;;;;;4949695;28;20452;-77
2023/11/03 03:02:43;;;;;;;2.53;1.80;;;19.10;52.40;;;;;;4954321;28;20463;-76
2023/11/03 03:05:11;;;;;;;1.90;1.80;;;19.10;52.40;;;;;;4950497;29;20484;-77
2023/11/03 03:07:45;;;;;;;4.90;3.27;;;19.00;52.50;;;;;;4952842;28;20542;-77
2023/11/03 03:10:13;;;;;;;5.93;2.10;;;19.00;52.50;;;;;;4959478;28;20487;-77
2023/11/03 03:12:42;;;;;;;3.50;2.50;;;19.00;52.50;;;;;;4955914;28;20475;-77
2023/11/03 03:15:11;;;;;;;3.33;2.80;;;19.00;52.60;;;;;;4955712;28;20531;-77
2023/11/03 03:17:39;;;;;;;4.97;2.60;;;19.00;52.80;;;;;;4956092;28;20447;-78
2023/11/03 03:20:08;;;;;;;4.10;2.70;;;19.00;52.70;;;;;;4956670;28;20455;-78
2023/11/03 03:22:37;;;;;;;4.07;2.43;;;19.00;52.80;;;;;;4959196;28;20470;-78
2023/11/03 03:25:07;;;;;;;3.83;2.33;;;19.00;52.90;;;;;;4954723;29;20551;-78
2023/11/03 03:27:36;;;;;;;4.83;2.20;;;19.00;52.70;;;;;;4963375;28;20517;-77
2023/11/03 03:30:05;;;;;;;2.93;2.63;;;19.00;53.00;;;;;;4959591;28;20446;-77
2023/11/03 03:32:35;;;;;;;3.20;2.30;;;19.00;52.80;;;;;;4958279;28;20521;-78
2023/11/03 03:35:03;;;;;;;5.63;2.33;;;19.00;53.00;;;;;;4962149;28;20447;-77
2023/11/03 03:37:31;;;;;;;5.10;2.50;;;19.00;52.90;;;;;;4962427;28;20575;-77
2023/11/03 03:40:00;;;;;;;4.70;2.60;;;18.90;53.00;;;;;;4940855;28;20515;-77
2023/11/03 03:42:28;;;;;;;4.80;2.67;;;18.90;52.60;;;;;;4951518;28;20466;-77
2023/11/03 03:44:56;;;;;;;3.47;2.43;;;18.90;53.20;;;;;;4970447;28;20478;-77
2023/11/03 03:47:24;;;;;;;6.47;2.10;;;19.00;53.10;;;;;;4962909;28;20470;-77
2023/11/03 03:49:55;;;;;;;3.87;2.70;;;18.90;53.00;;;;;;4964585;28;20455;-77
2023/11/03 03:52:24;;;;;;;3.37;2.03;;;18.90;53.00;;;;;;4971611;28;20462;-78
2023/11/03 03:54:52;;;;;;;3.63;2.37;;;18.90;53.10;;;;;;4962480;28;20525;-78
2023/11/03 03:57:20;;;;;;;2.40;2.07;;;18.90;53.00;;;;;;4949751;28;20458;-77
2023/11/03 03:59:48;;;;;;;2.00;1.90;;;18.90;53.00;;;;;;4961437;28;20448;-77
2023/11/03 04:02:17;;;;;;;2.97;2.20;;;18.90;53.20;;;;;;4949241;28;20474;-78
2023/11/03 04:04:45;;;;;;;4.10;2.47;;;18.90;53.30;;;;;;4955428;28;20562;-79
2023/11/03 04:07:15;;;;;;;1.90;1.80;;;18.90;53.10;;;;;;4960890;28;20457;-79
2023/11/03 04:09:44;;;;;;;2.50;1.70;;;18.90;53.40;;;;;;4965481;28;20451;-78
2023/11/03 04:12:13;;;;;;;2.40;2.00;;;18.90;53.30;;;;;;4954545;28;20489;-78
2023/11/03 04:14:41;;;;;;;2.63;1.90;;;18.90;53.30;;;;;;4946738;28;20452;-79
2023/11/03 04:17:09;;;;;;;1.77;1.50;;;18.90;53.30;;;;;;4947064;28;20452;-78
2023/11/03 04:19:37;;;;;;;3.30;1.60;;;18.90;53.30;;;;;;4963775;28;20522;-78
2023/11/03 04:22:05;;;;;;;2.50;1.80;;;18.80;53.20;;;;;;4964700;28;20480;-78
2023/11/03 04:24:35;;;;;;;2.00;1.90;;;18.80;53.40;;;;;;4961849;28;20482;-78
2023/11/03 04:27:03;;;;;;;2.10;1.90;;;18.80;53.40;;;;;;4967143;28;20979;-80
2023/11/03 04:29:31;;;;;;;3.50;1.90;;;18.80;53.50;;;;;;4963420;28;20907;-79
2023/11/03 04:31:59;;;;;;;1.90;1.77;;;18.80;53.40;;;;;;4956878;28;20445;-79
2023/11/03 04:34:27;;;;;;;2.23;1.60;;;18.80;53.30;;;;;;4958576;28;20603;-78
2023/11/03 04:36:55;;;;;;;4.57;2.07;;;18.80;53.20;;;;;;4957921;28;20480;-79
2023/11/03 04:39:23;;;;;;;2.40;1.90;;;18.80;53.40;;;;;;4959959;28;20444;-79
2023/11/03 04:41:53;;;;;;;5.00;2.00;;;18.80;53.40;;;;;;4959746;28;20475;-79
2023/11/03 04:44:20;;;;;;;2.17;1.40;;;18.80;53.40;;;;;;4959992;28;20530;-80
2023/11/03 04:46:49;;;;;;;1.90;1.60;;;18.80;53.50;;;;;;4962383;28;20518;-79
2023/11/03 04:49:18;;;;;;;2.73;1.70;;;18.80;53.50;;;;;;4969426;28;20498;-79
2023/11/03 04:51:47;;;;;;;2.13;1.60;;;18.80;53.40;;;;;;4967950;28;20451;-78
2023/11/03 04:54:16;;;;;;;3.30;1.70;;;18.80;53.40;;;;;;4956708;28;20816;-78
2023/11/03 04:56:44;;;;;;;2.50;1.53;;;18.80;53.50;;;;;;4956536;28;20470;-79
2023/11/03 04:59:14;;;;;;;1.60;1.50;;;18.80;53.50;;;;;;4966892;28;20473;-79
2023/11/03 05:01:42;;;;;;;1.83;1.73;;;18.80;53.60;;;;;;4963500;28;20864;-79
2023/11/03 05:04:11;;;;;;;4.03;1.70;;;18.80;54.10;;;;;;4964019;28;20474;-78
2023/11/03 05:06:39;;;;;;;4.13;1.90;;;18.80;53.50;;;;;;4979363;28;20489;-79
2023/11/03 05:09:09;;;;;;;4.50;1.43;;;18.80;53.50;;;;;;4952815;29;20460;-77
2023/11/03 05:11:37;;;;;;;1.60;1.50;;;18.80;53.40;;;;;;4957939;28;20447;-77
2023/11/03 05:14:06;;;;;;;2.63;1.40;;;18.80;53.40;;;;;;4956995;28;20467;-77
2023/11/03 05:16:35;;;;;;;1.60;1.33;;;18.80;53.50;;;;;;4965993;28;20438;-78
2023/11/03 05:19:03;;;;;;;2.00;1.40;;;18.80;53.60;;;;;;4968164;28;20465;-78
2023/11/03 05:21:31;;;;;;;3.63;1.97;;;18.80;53.30;;;;;;4970293;28;20438;-78
2023/11/03 05:23:59;;;;;;;2.30;1.50;;;18.80;53.50;;;;;;4967681;28;20489;-78
2023/11/03 05:26:27;;;;;;;1.73;1.43;;;18.80;53.50;;;;;;4957473;28;20474;-78
2023/11/03 05:28:57;;;;;;;2.57;1.63;;;18.80;53.60;;;;;;4963709;28;20456;-77
2023/11/03 05:31:25;;;;;;;2.83;1.70;;;18.80;53.30;;;;;;4962947;28;20479;-78
2023/11/03 05:33:54;;;;;;;1.47;1.37;;;18.80;53.70;;;;;;4958217;28;20478;-78
2023/11/03 05:36:22;;;;;;;3.37;1.40;;;18.80;53.60;;;;;;4956977;28;20906;-78
2023/11/03 05:38:50;;;;;;;1.60;1.50;;;18.80;54.00;;;;;;4960510;28;20459;-77
2023/11/03 05:41:19;;;;;;;3.33;1.40;;;18.80;53.60;;;;;;4957945;28;20510;-77
2023/11/03 05:43:47;;;;;;;2.23;1.40;;;18.80;53.60;;;;;;4957256;28;20558;-77
2023/11/03 05:46:15;;;;;;;2.70;1.30;;;18.80;53.50;;;;;;4967074;28;20569;-78
2023/11/03 05:48:43;;;;;;;2.70;1.43;;;18.80;53.50;;;;;;4962817;28;20478;-78
2023/11/03 05:51:12;;;;;;;2.57;1.67;;;18.80;53.50;;;;;;4964113;28;20495;-79
2023/11/03 05:53:40;;;;;;;4.03;1.20;;;18.80;53.50;;;;;;4957797;28;20501;-78
2023/11/03 05:56:08;;;;;;;1.33;1.13;;;18.80;53.50;;;;;;4957522;28;20440;-77
2023/11/03 05:58:37;;;;;;;1.67;1.50;;;18.80;53.50;;;;;;4964286;28;20521;-77
2023/11/03 06:01:07;;;;;;;2.10;1.20;;;18.80;53.60;;;;;;4946919;28;20491;-78
2023/11/03 06:03:35;;;;;;;2.40;1.33;;;18.80;53.70;;;;;;4955371;29;20474;-77
2023/11/03 06:06:06;;;;;;;1.50;1.40;;;18.80;53.60;;;;;;4959947;28;20489;-77
2023/11/03 06:08:35;;;;;;;1.53;1.30;;;18.80;53.60;;;;;;4959970;28;20429;-76
2023/11/03 06:11:04;;;;;;;1.50;1.40;;;18.80;53.60;;;;;;4958256;28;20458;-78
2023/11/03 06:13:37;;;;;;;2.10;1.23;;;18.80;53.70;;;;;;4953412;28;20476;-77
2023/11/03 06:16:06;;;;;;;1.77;1.30;;;18.80;53.50;;;;;;4964632;28;20444;-78
2023/11/03 06:18:35;;;;;;;2.60;1.20;;;18.80;53.60;;;;;;4956323;28;20482;-77
2023/11/03 06:21:03;;;;;;;2.30;1.10;;;18.80;53.60;;;;;;4965142;28;20530;-76
2023/11/03 06:23:31;;;;;;;1.20;1.10;;;18.80;53.70;;;;;;4956481;28;20480;-77
2023/11/03 06:26:03;;;;;;;3.60;1.40;;;18.80;53.40;;;;;;4955740;28;20467;-77
2023/11/03 06:28:31;;;;;;;2.90;1.23;;;18.80;53.30;;;;;;4956512;28;20485;-76
2023/11/03 06:30:59;;;;;;;4.20;1.20;;;18.80;53.50;;;;;;4956690;28;20549;-76
2023/11/03 06:33:27;;;;;;;1.60;1.27;;;18.80;53.60;;;;;;4956101;28;20479;-77
2023/11/03 06:35:57;;;;;;;2.30;1.20;;;18.80;53.60;;;;;;4964827;28;20431;-77
2023/11/03 06:38:25;;;;;;;2.13;1.27;;;18.80;53.50;;;;;;4950580;28;20535;-77
2023/11/03 06:40:53;;;;;;;2.30;1.10;;;18.80;53.40;;;;;;4955374;28;20527;-78
2023/11/03 06:43:22;;;;;;;1.40;1.00;;;18.80;53.50;;;;;;4975653;28;20549;-78
2023/11/03 06:45:50;;;;;;;1.97;1.30;;;18.80;53.60;;;;;;4961522;28;20483;-78
2023/11/03 06:48:19;;;;;;;2.50;1.50;;;18.80;53.30;;;;;;4972855;28;20451;-78
2023/11/03 06:50:47;;;;;;;1.20;1.10;;;18.70;53.30;;;;;;4964703;28;20443;-78
2023/11/03 06:53:15;;;;;;;2.00;1.20;;;18.70;53.40;;;;;;4952325;28;20494;-78
2023/11/03 06:55:43;;;;;;;3.07;1.43;;;18.70;53.40;;;;;;4959282;28;20474;-78
2023/11/03 06:58:11;;;;;;;3.40;1.03;;;18.70;53.30;;;;;;4958277;28;20443;-77
2023/11/03 07:00:41;;;;;;;1.30;1.20;;;18.70;53.20;;;;;;4957853;28;20545;-77
2023/11/03 07:03:09;;;;;;;1.00;0.90;;;18.70;53.30;;;;;;4957371;29;20463;-78
2023/11/03 07:05:38;;;;;;;1.27;1.00;;;18.80;53.30;;;;;;4949045;29;20486;-78
2023/11/03 07:08:06;;;;;;;1.90;1.10;;;18.80;53.30;;;;;;4956070;29;20418;-77
2023/11/03 07:10:36;;;;;;;1.20;1.10;;;18.80;53.40;;;;;;4956270;29;20506;-78
2023/11/03 07:13:05;;;;;;;2.83;1.30;;;18.80;53.40;;;;;;4956160;28;20526;-78
2023/11/03 07:15:36;;;;;;;3.23;1.30;;;18.80;53.50;;;;;;4955523;29;20458;-77
2023/11/03 07:18:06;;;;;;;2.80;1.10;;;18.80;53.30;;;;;;4954073;29;20447;-78
2023/11/03 07:20:34;;;;;;;1.83;1.03;;;18.80;53.90;;;;;;4949946;28;20452;-78
2023/11/03 07:23:01;;;;;;;1.20;1.00;;;18.80;53.30;;;;;;4955627;29;20502;-78
2023/11/03 07:25:29;;;;;;;2.20;1.00;;;18.80;53.20;;;;;;4955919;28;20435;-77
2023/11/03 07:27:57;;;;;;;1.33;1.10;;;18.80;53.40;;;;;;4947006;29;20521;-77
2023/11/03 07:30:25;;;;;;;2.17;1.20;;;18.80;53.30;;;;;;4947402;29;20470;-77
2023/11/03 07:32:53;;;;;;;1.50;1.40;;;18.80;53.40;;;;;;4955827;28;20471;-79
2023/11/03 07:35:22;;;;;;;3.50;1.00;;;18.80;53.50;;;;;;4947789;29;20447;-78
2023/11/03 07:37:50;;;;;;;1.37;1.10;;;18.80;53.40;;;;;;4955268;29;20438;-78
2023/11/03 07:40:18;;;;;;;1.10;0.80;;;18.90;53.50;;;;;;4955493;28;20447;-78
2023/11/03 07:42:47;;;;;;;1.80;1.30;;;18.90;53.50;;;;;;4956435;28;20526;-79
2023/11/03 07:45:16;;;;;;;1.53;1.00;;;18.90;53.40;;;;;;4956836;29;20480;-79
2023/11/03 07:47:44;;;;;;;3.33;1.20;;;18.90;53.40;;;;;;4956453;28;20622;-79
2023/11/03 07:50:13;;;;;;;2.50;1.10;;;18.90;53.40;;;;;;4955085;29;20526;-79
2023/11/03 07:52:43;;;;;;;1.10;0.97;;;18.90;53.30;;;;;;4954375;28;20566;-78
2023/11/03 07:55:15;;;;;;;1.53;1.00;;;18.90;53.30;;;;;;4954570;28;20518;-79
2023/11/03 07:57:43;;;;;;;1.20;1.10;;;18.90;53.30;;;;;;4953319;29;20451;-79
2023/11/03 08:00:12;;;;;;;6.43;1.30;;;18.90;53.30;;;;;;4955072;29;20485;-78
2023/11/03 08:02:43;;;;;;;1.10;0.80;;;19.00;53.40;;;;;;4955225;28;20469;-79
2023/11/03 08:05:11;;;;;;;1.10;1.00;;;18.90;53.30;;;;;;4955761;29;20470;-79
2023/11/03 08:07:40;;;;;;;1.67;0.90;;;18.90;53.30;;;;;;4955144;28;20834;-77
2023/11/03 08:10:12;;;;;;;1.43;1.20;;;18.90;53.30;;;;;;4960208;28;20447;-78
2023/11/03 08:12:45;;;;;;;0.90;0.90;;;19.00;53.20;;;;;;4963088;28;20470;-78
2023/11/03 08:15:13;;;;;;;1.63;1.00;;;19.00;53.30;;;;;;4950196;29;20551;-81
2023/11/03 08:17:44;;;;;;;3.13;1.40;;;19.00;53.20;;;;;;4955559;28;20443;-80
2023/11/03 08:20:15;;;;;;;1.33;0.90;;;19.00;53.30;;;;;;4955514;28;20516;-81
2023/11/03 08:22:44;;;;;;;1.47;1.10;;;19.00;53.30;;;;;;4959199;28;20490;-80
2023/11/03 08:25:14;;;;;;;1.60;1.00;;;19.00;53.20;;;;;;4954196;28;20458;-80
2023/11/03 08:27:44;;;;;;;1.03;0.90;;;19.00;53.10;;;;;;4961606;28;20445;-81
2023/11/03 08:30:12;;;;;;;1.00;1.00;;;19.10;53.30;;;;;;4965189;28;20548;-81
2023/11/03 08:32:41;;;;;;;6.10;1.30;;;19.00;53.40;;;;;;4967085;28;20482;-81
2023/11/03 08:35:11;;;;;;;2.47;1.00;;;19.00;53.30;;;;;;4963532;28;20435;-81
2023/11/03 08:37:40;;;;;;;2.13;1.00;;;19.10;53.00;;;;;;4962494;28;20475;-81
2023/11/03 08:40:09;;;;;;;2.40;1.00;;;19.10;53.20;;;;;;4961753;28;20443;-81
2023/11/03 08:42:39;;;;;;;3.90;1.30;;;19.10;53.20;;;;;;4958620;28;20530;-81
2023/11/03 08:45:26;;;;;;;1.23;0.93;;;19.10;53.10;;;;;;4953891;28;20455;-82
2023/11/03 08:47:56;;;;;;;1.60;1.30;;;19.20;53.20;;;;;;4957043;28;20475;-83
2023/11/03 08:50:24;;;;;;;1.47;1.10;;;19.20;53.30;;;;;;4962985;28;20517;-81
2023/11/03 08:52:55;;;;;;;2.10;1.20;;;19.20;53.40;;;;;;4959589;28;20550;-81
2023/11/03 08:55:25;;;;;;;4.40;1.37;;;19.20;53.20;;;;;;4956472;29;20466;-81
2023/11/03 08:57:57;;;;;;;2.40;0.93;;;19.20;53.30;;;;;;4962439;28;20501;-80
2023/11/03 09:00:25;;;;;;;2.93;1.50;;;19.30;53.80;;;;;;4954251;28;20459;-81
2023/11/03 09:02:55;;;;;;;3.03;1.23;;;19.30;53.20;;;;;;4959705;28;20478;-80
2023/11/03 09:31:16;;;;;;;2.53;1.20;;;19.30;53.50;;;;;;4817211;29;20548;-81
2023/11/03 09:33:49;;;;;;;2.70;1.00;;;19.20;53.30;;;;;;4858419;29;20506;-82
2023/11/03 09:36:26;;;;;;;2.90;1.37;;;19.30;53.30;;;;;;4897780;29;20462;-80
2023/11/03 09:38:54;;;;;;;1.50;1.03;;;19.30;53.40;;;;;;4907074;29;20839;-79
2023/11/03 09:41:23;;;;;;;2.77;1.40;;;19.30;53.30;;;;;;4905679;29;20463;-79
2023/11/03 09:43:51;;;;;;;1.50;1.40;;;19.30;53.30;;;;;;4897683;29;20482;-79
2023/11/03 09:46:21;;;;;;;1.63;1.23;;;19.30;53.30;;;;;;4909363;29;20467;-79
2023/11/03 09:48:51;;;;;;;2.23;1.30;;;19.30;53.40;;;;;;4958862;28;20471;-79
2023/11/03 09:51:20;;;;;;;2.93;1.27;;;19.30;53.40;;;;;;4965731;28;20456;-79
2023/11/03 09:53:49;;;;;;;1.40;1.20;;;19.30;53.50;;;;;;4955943;28;20479;-78
2023/11/03 09:56:18;;;;;;;2.90;1.10;;;19.30;53.40;;;;;;4953562;28;20479;-78
2023/11/03 09:58:48;;;;;;;4.23;1.57;;;19.30;53.40;;;;;;4954870;28;20506;-78
2023/11/03 10:01:16;;;;;;;1.67;1.30;;;19.30;53.30;;;;;;4958486;29;20451;-78
2023/11/03 10:03:47;;;;;;;2.27;1.13;;;19.30;53.50;;;;;;4958787;28;20503;-78
2023/11/03 10:06:16;;;;;;;1.77;1.37;;;19.30;53.50;;;;;;4962941;29;20454;-79
2023/11/03 10:08:44;;;;;;;4.97;1.37;;;19.30;53.60;;;;;;4965775;28;20476;-79
2023/11/03 10:11:12;;;;;;;1.93;1.30;;;19.30;53.40;;;;;;4956088;28;20451;-79
2023/11/03 10:13:40;;;;;;;3.47;1.30;;;19.30;53.50;;;;;;4959093;28;20523;-79
2023/11/03 10:16:08;;;;;;;6.20;2.00;;;19.30;53.60;;;;;;4953514;28;20499;-78
2023/11/03 10:18:37;;;;;;;9.10;2.10;;;19.10;54.10;;;;;;4942637;29;20518;-80
2023/11/03 10:21:08;;;;;;;5.87;2.07;;;17.20;55.60;;;;;;4955022;28;20467;-78
2023/11/03 10:23:37;;;;;;;8.50;2.40;;;15.30;59.80;;;;;;4949004;28;20566;-78
2023/11/03 10:26:05;;;;;;;4.87;2.20;;;14.40;63.00;;;;;;4950084;28;20523;-78
2023/11/03 10:28:33;;;;;;;8.73;2.40;;;13.20;67.10;;;;;;4946569;28;20998;-78
2023/11/03 10:31:04;;;;;;;9.63;2.57;;;12.80;69.70;;;;;;4956838;28;20490;-78
2023/11/03 10:33:32;;;;;;;6.37;2.20;;;12.70;72.40;;;;;;4955053;28;20993;-78
2023/11/03 10:36:00;;;;;;;7.90;2.37;;;12.70;74.00;;;;;;4952084;28;20447;-77
2023/11/03 10:38:30;;;;;;;6.57;2.60;;;12.50;73.80;;;;;;4956106;28;20443;-76
2023/11/03 10:40:58;;;;;;;6.33;2.20;;;12.40;76.50;;;;;;4960386;28;20464;-77
2023/11/03 10:43:27;;;;;;;4.63;1.60;;;13.40;79.50;;;;;;4958802;28;20521;-79
2023/11/03 10:46:00;;;;;;;5.33;2.07;;;14.60;75.80;;;;;;4960940;28;20584;-79
2023/11/03 10:48:33;;;;;;;3.90;1.50;;;15.40;71.10;;;;;;4961487;28;20487;-79
2023/11/03 10:51:04;;;;;;;3.97;1.60;;;16.10;67.70;;;;;;4958478;28;20442;-79
2023/11/03 10:53:42;;;;;;;2.60;1.60;;;16.60;65.00;;;;;;4954059;28;20528;-79
2023/11/03 10:56:10;;;;;;;5.80;1.90;;;17.00;63.00;;;;;;4962145;28;20458;-79
2023/11/03 10:58:58;;;;;;;3.03;1.43;;;17.30;61.30;;;;;;4962506;28;20431;-78
2023/11/03 11:01:30;;;;;;;10.00;2.20;;;17.50;60.10;;;;;;4956226;28;20470;-77
2023/11/03 11:04:01;;;;;;;7.87;1.60;;;17.80;59.40;;;;;;4961253;28;20474;-77
2023/11/03 11:06:30;;;;;;;3.90;1.73;;;17.90;58.80;;;;;;4955971;28;20470;-76
2023/11/03 11:09:04;;;;;;;6.17;1.63;;;18.00;58.10;;;;;;4967809;28;20557;-77
2023/11/03 11:11:33;;;;;;;4.07;1.67;;;18.20;57.80;;;;;;4957012;28;20478;-77
2023/11/03 11:14:16;;;;;;;4.67;1.83;;;18.30;57.50;;;;;;4955888;28;20467;-77
2023/11/03 11:16:45;;;;;;;3.90;1.60;;;18.40;57.20;;;;;;4953175;28;20451;-78
2023/11/03 11:19:14;;;;;;;5.27;1.80;;;18.40;56.90;;;;;;4958176;28;20425;-76
2023/11/03 11:21:48;;;;;;;2.50;1.40;;;18.50;56.80;;;;;;4947940;28;20451;-76
2023/11/03 11:24:21;;;;;;;5.80;1.53;;;18.50;56.60;;;;;;4947211;28;20488;-77
2023/11/03 11:26:49;;;;;;;5.67;1.30;;;18.60;56.50;;;;;;4944086;28;20516;-77
2023/11/03 11:29:24;;;;;;;3.87;1.40;;;18.60;56.20;;;;;;4959455;28;20530;-77
2023/11/03 11:31:52;;;;;;;4.37;1.57;;;18.70;56.10;;;;;;4952533;28;20538;-78
2023/11/03 11:34:22;;;;;;;4.20;1.53;;;18.80;56.10;;;;;;4963201;28;20475;-78
2023/11/03 11:36:51;;;;;;;6.43;1.83;;;18.80;56.00;;;;;;4965434;28;20438;-80
2023/11/03 11:39:22;;;;;;;7.03;2.07;;;18.90;55.80;;;;;;4964030;28;20431;-79
2023/11/03 11:41:53;;;;;;;6.07;1.67;;;18.90;55.70;;;;;;4950972;29;20446;-80
2023/11/03 11:44:23;;;;;;;3.30;1.70;;;19.00;55.60;;;;;;4972096;28;20466;-80
2023/11/03 11:46:54;;;;;;;4.87;1.50;;;19.00;55.40;;;;;;4966926;28;20443;-80
2023/11/03 11:49:27;;;;;;;2.80;1.40;;;19.10;55.40;;;;;;4971974;28;20476;-80
2023/11/03 11:51:55;;;;;;;6.17;1.80;;;19.10;55.40;;;;;;4960881;29;20514;-79
2023/11/03 11:54:25;;;;;;;9.40;2.03;;;19.20;55.20;;;;;;4961520;28;20487;-80
2023/11/03 11:56:52;;;;;;;2.87;1.83;;;19.30;55.00;;;;;;4972051;28;20423;-79
2023/11/03 11:59:21;;;;;;;6.27;1.90;;;19.50;55.20;;;;;;4961322;28;20451;-79
2023/11/03 12:01:50;;;;;;;4.47;2.00;;;19.80;55.40;;;;;;4959400;28;21041;-80
2023/11/03 12:04:18;;;;;;;2.90;1.83;;;20.30;54.90;;;;;;4963887;28;20433;-78
2023/11/03 12:06:47;;;;;;;5.10;1.97;;;20.60;54.40;;;;;;4956667;28;20475;-79
2023/11/03 12:09:16;;;;;;;4.00;1.73;;;20.90;53.90;;;;;;4966222;28;20499;-80
2023/11/03 12:11:46;;;;;;;2.13;1.93;;;21.00;53.00;;;;;;4961757;28;20432;-79
2023/11/03 12:14:15;;;;;;;7.50;2.10;;;21.30;53.10;;;;;;4963107;28;20470;-79
2023/11/03 12:16:48;;;;;;;7.60;2.30;;;21.50;52.40;;;;;;4960422;28;20443;-80
2023/11/03 12:19:16;;;;;;;4.70;2.30;;;21.50;52.40;;;;;;4958208;28;20450;-79
2023/11/03 12:21:50;;;;;;;6.53;2.10;;;21.50;52.30;;;;;;4957529;28;20425;-79
2023/11/03 12:24:18;;;;;;;8.33;2.17;;;21.60;52.00;;;;;;4959141;28;20471;-77
2023/11/03 12:26:48;;;;;;;4.60;1.93;;;21.60;52.30;;;;;;4960408;28;20437;-78
2023/11/03 12:29:26;;;;;;;6.00;2.20;;;21.80;51.80;;;;;;4959340;28;20506;-79
2023/11/03 12:31:56;;;;;;;6.20;2.43;;;22.20;52.30;;;;;;4957508;28;20421;-78
2023/11/03 12:34:25;;;;;;;5.53;2.13;;;22.50;51.50;;;;;;4951721;28;20446;-78
2023/11/03 12:36:53;;;;;;;3.77;2.00;;;23.00;51.50;;;;;;4950267;28;20451;-79
2023/11/03 12:39:22;;;;;;;4.10;2.20;;;23.40;51.00;;;;;;4961672;28;20926;-82
2023/11/03 12:42:04;;;;;;;3.23;1.90;;;23.70;50.50;;;;;;4968139;28;20440;-79
2023/11/03 12:44:47;;;;;;;6.90;2.30;;;24.00;49.90;;;;;;4958579;28;20421;-77
2023/11/03 12:47:15;;;;;;;3.77;2.10;;;24.20;49.50;;;;;;4960211;28;21199;-79
2023/11/03 12:49:43;;;;;;;7.23;2.63;;;24.40;49.40;;;;;;4958267;28;20538;-78
2023/11/03 12:52:16;;;;;;;6.60;2.20;;;24.50;49.20;;;;;;4956344;28;20502;-78
2023/11/03 12:54:44;;;;;;;6.97;2.23;;;24.70;49.30;;;;;;4954972;29;20550;-81
2023/11/03 12:57:14;;;;;;;5.60;2.20;;;24.80;48.80;;;;;;4962869;28;20514;-83
2023/11/03 12:59:43;;;;;;;3.20;1.80;;;25.00;48.90;;;;;;4960430;29;20460;-81
2023/11/03 13:02:10;;;;;;;5.30;2.30;;;25.10;48.90;;;;;;4962128;28;20447;-80
2023/11/03 13:04:40;;;;;;;5.17;2.23;;;25.30;48.90;;;;;;4956049;29;20461;-80
2023/11/03 13:07:11;;;;;;;4.73;1.93;;;25.40;48.20;;;;;;4959702;29;20479;-82
2023/11/03 13:09:40;;;;;;;2.03;1.87;;;25.50;48.50;;;;;;4960947;28;20513;-82
2023/11/03 13:12:10;;;;;;;4.00;2.13;;;25.50;47.90;;;;;;4960461;28;20445;-81
2023/11/03 13:14:41;;;;;;;4.63;1.80;;;25.60;48.20;;;;;;4959578;28;20458;-80
2023/11/03 13:17:14;;;;;;;5.27;2.40;;;25.50;48.20;;;;;;4964339;28;20462;-81
2023/11/03 13:19:43;;;;;;;3.53;2.37;;;25.40;48.10;;;;;;4969229;28;20435;-81
2023/11/03 13:22:11;;;;;;;4.57;2.33;;;25.40;48.70;;;;;;4958982;29;20451;-81
2023/11/03 13:24:43;;;;;;;4.90;2.37;;;25.70;48.80;;;;;;4958282;28;20458;-79